Aérodrome :
LOGIN :

S'inscrire | Disclaimer

   EN    FR    IT 

 










Légende :    VFR   VFR Marginal   IFR   IFR Intensif   IFR Très Intensif
Visi : 
Plafond : 
>= 8 km
>= 3000ft
5 à 8 km
1000 à 3000 ft
1500m à 5 km
500 à 1000 ft
800 à 1500m
200 à 500 ft
< 800m
< 200 ft
Symboles :   Orages  Brouillard  Fortes neiges  Fortes précipitations  Vent > 20 kt
SIGMETs :   Divers  Orages  Givrage  Turbulence  Onde Orograph.  Cendres Volcan.







- Altitude de l'aérodrome : 39 ft
- Code IATA : CTA


LICC - Catania Fontanarossa

DERNIER METAR :
  • 292050Z 19004KT 8000 FEW070 15/11 Q1011

METARs EXPIRÉS :
  • 292020Z 17003KT 8000 FEW070 15/11 Q1010
  • 291950Z 26004KT 230V290 8000 FEW070 15/11 Q1010
  • 291920Z 28005KT 260V320 8000 SCT070 16/11 Q1010
  • 291850Z 25006KT 8000 SCT070 16/11 Q1009
  • 291820Z 26006KT 8000 FEW060 16/11 Q1009

TAF TAF LICC
Valide du 29 à 18h jusqu'au 30 à 18h UTC


291700Z 2918/3018 VRB05KT 9999 FEW040
BECMG 3009/3011 07014KT
Pas de NOTAMs connus pour ce terrain.



MET'MAP, la Météo Aéronautique d'un coup d'oeil ! - Copyright ORBIFLY Décembre 2007 - Disclaimer

ORBIFLY MET'MAP TEAM :

Programmation & Développement : Alexandra Zaïnal
Conception & Développement : Baudouin d'Aumeries
Co-Programmation & Développement : Marc-Olivier Méhu
Soutien technique & logistique : Manuel Goepfert

Contact : metmap@orbifly.com




SOURCES & CREDITS :

   NOAA